createdAt,value
2022-08-16T00:02:31.293Z,99.9
2022-08-16T00:04:35.144Z,99.9
2022-08-16T00:06:39.362Z,99.9
2022-08-16T00:08:45.863Z,99.9
2022-08-16T00:10:46.897Z,99.9
2022-08-16T00:12:51.059Z,99.9
2022-08-16T00:14:56.545Z,99.9
2022-08-16T00:17:15.850Z,99.9
2022-08-16T00:21:09.379Z,99.9
2022-08-16T00:22:15.284Z,99.9
2022-08-16T00:24:31.218Z,99.9
2022-08-16T00:26:35.540Z,99.9
2022-08-16T00:28:24.484Z,99.9
2022-08-16T00:30:31.257Z,99.9
2022-08-16T00:36:47.081Z,99.9
2022-08-16T00:38:46.972Z,99.9
2022-08-16T00:40:53.698Z,99.9
2022-08-16T00:42:55.020Z,99.9
2022-08-16T00:47:06.495Z,99.9
2022-08-16T00:49:19.589Z,99.9
2022-08-16T00:51:15.968Z,99.9
2022-08-16T00:53:17.985Z,99.9
2022-08-16T00:55:22.216Z,99.9
2022-08-16T00:57:25.859Z,99.9
2022-08-16T00:59:32.876Z,99.9
2022-08-16T01:01:36.555Z,99.9
2022-08-16T01:03:41.639Z,99.9
2022-08-16T01:07:52.100Z,99.9
2022-08-16T01:09:52.295Z,99.9
2022-08-16T01:14:03.031Z,99.9
2022-08-16T01:16:10.124Z,99.9
2022-08-16T01:18:40.536Z,99.9
2022-08-16T01:19:15.301Z,99.9
2022-08-16T01:21:22.536Z,99.9
2022-08-16T01:23:22.138Z,99.9
2022-08-16T01:27:34.423Z,99.9
2022-08-16T01:31:42.495Z,99.9
2022-08-16T01:33:44.838Z,99.9
2022-08-16T01:35:52.497Z,99.9
2022-08-16T01:37:53.111Z,99.9
2022-08-16T01:39:56.449Z,99.9
2022-08-16T01:42:03.199Z,99.9
2022-08-16T01:44:07.132Z,99.9
2022-08-16T01:46:37.471Z,99.9
2022-08-16T01:54:30.953Z,99.9
2022-08-16T02:00:42.954Z,99.9
2022-08-16T02:02:52.176Z,99.9
2022-08-16T02:04:51.215Z,99.9
2022-08-16T02:06:54.783Z,99.9
2022-08-16T02:08:58.705Z,99.9
2022-08-16T02:11:05.510Z,99.9
2022-08-16T02:13:09.441Z,99.9
2022-08-16T02:15:13.361Z,99.9
2022-08-16T02:17:31.376Z,99.9
2022-08-16T02:19:59.164Z,99.9
2022-08-16T02:21:39.259Z,99.9
2022-08-16T02:25:52.747Z,99.9
2022-08-16T02:32:03.928Z,99.9
2022-08-16T02:36:14.105Z,99.9
2022-08-16T02:40:20.393Z,99.9
2022-08-16T02:42:24.333Z,99.9
2022-08-16T02:46:33.823Z,99.9
2022-08-16T02:50:54.633Z,99.9
2022-08-16T02:52:47.028Z,99.9
2022-08-16T02:54:55.231Z,99.9
2022-08-16T02:56:54.775Z,99.9
2022-08-16T02:58:58.719Z,99.9
2022-08-16T03:01:02.650Z,99.9
2022-08-16T03:03:10.545Z,99.9
2022-08-16T03:07:17.307Z,99.9
2022-08-16T03:09:21.260Z,99.9
2022-08-16T03:11:25.214Z,99.9
2022-08-16T03:12:30.121Z,99.9
2022-08-16T03:14:32.548Z,99.9
2022-08-16T03:16:39.178Z,99.9
2022-08-16T03:18:40.681Z,99.9
2022-08-16T03:20:55.491Z,99.9
2022-08-16T03:22:51.180Z,99.9
2022-08-16T03:24:55.129Z,99.9
2022-08-16T03:29:03.021Z,99.9
2022-08-16T03:31:06.955Z,99.9
2022-08-16T03:33:10.916Z,99.9
2022-08-16T03:35:18.109Z,99.9
2022-08-16T03:37:21.614Z,99.9
2022-08-16T03:39:25.649Z,99.9
2022-08-16T03:41:50.350Z,99.9
2022-08-16T03:43:51.832Z,99.9
2022-08-16T03:45:37.397Z,99.9
2022-08-16T03:47:41.357Z,99.9
2022-08-16T03:51:52.219Z,99.9
2022-08-16T03:53:57.501Z,99.9
2022-08-16T03:55:59.949Z,99.9
2022-08-16T03:58:03.908Z,99.9
2022-08-16T04:00:07.855Z,99.9
2022-08-16T04:02:22.416Z,99.9
2022-08-16T04:04:32.577Z,99.9
2022-08-16T04:06:22.545Z,99.9
2022-08-16T04:08:27.044Z,99.9
2022-08-16T04:09:29.894Z,99.9
2022-08-16T04:19:54.943Z,99.9
2022-08-16T04:24:00.375Z,99.9
2022-08-16T04:26:04.325Z,99.9
2022-08-16T04:28:51.967Z,99.9
2022-08-16T04:30:12.204Z,99.9
2022-08-16T04:32:19.863Z,99.9
2022-08-16T04:34:24.888Z,99.9
2022-08-16T04:36:26.881Z,99.9
2022-08-16T04:38:30.801Z,99.9
2022-08-16T04:40:35.014Z,99.9
2022-08-16T04:42:38.707Z,99.9
2022-08-16T04:44:53.350Z,99.9
2022-08-16T04:53:01.317Z,99.9
2022-08-16T04:55:05.265Z,99.9
2022-08-16T04:59:13.159Z,99.9
2022-08-16T05:01:19.974Z,99.9
2022-08-16T05:03:23.948Z,99.9
2022-08-16T05:06:44.791Z,99.9
2022-08-16T05:08:35.171Z,99.9
2022-08-16T05:10:39.113Z,99.9
2022-08-16T05:12:44.868Z,99.9
2022-08-16T05:15:01.981Z,99.9
2022-08-16T05:16:53.758Z,99.9
2022-08-16T05:18:58.376Z,99.9
2022-08-16T05:21:09.772Z,99.9
2022-08-16T05:23:05.593Z,99.9
2022-08-16T05:25:09.537Z,99.9
2022-08-16T05:27:13.470Z,99.9
2022-08-16T05:29:20.650Z,99.9
2022-08-16T05:31:24.162Z,99.9
2022-08-16T05:33:28.098Z,99.9
2022-08-16T05:35:32.033Z,99.9
2022-08-16T05:37:39.928Z,99.9
2022-08-16T05:39:40.914Z,99.9
2022-08-16T05:41:45.119Z,99.9
2022-08-16T05:43:50.531Z,99.9
2022-08-16T05:45:54.645Z,99.9
2022-08-16T05:47:59.956Z,99.9
2022-08-16T05:50:02.337Z,99.9
2022-08-16T05:52:11.668Z,99.9
2022-08-16T05:54:11.485Z,99.9
2022-08-16T05:56:19.495Z,99.9
2022-08-16T05:58:32.745Z,99.9
2022-08-16T06:00:24.591Z,99.9
2022-08-16T06:02:29.003Z,99.9
2022-08-16T06:04:52.492Z,99.9
2022-08-16T06:06:57.249Z,99.9
2022-08-16T06:09:00.285Z,99.9
2022-08-16T06:11:10.254Z,99.9
2022-08-16T06:13:10.924Z,99.9
2022-08-16T06:15:15.062Z,99.9
2022-08-16T06:17:18.744Z,99.9
2022-08-16T06:23:32.152Z,99.9
2022-08-16T06:25:39.187Z,99.9
2022-08-16T06:27:41.145Z,99.9
2022-08-16T06:29:49.840Z,99.9
2022-08-16T06:31:50.540Z,99.9
2022-08-16T06:38:00.719Z,99.9
2022-08-16T06:44:20.952Z,99.9
2022-08-16T06:48:32.879Z,99.9
2022-08-16T06:52:57.810Z,99.9
2022-08-16T06:54:37.722Z,99.9
2022-08-16T06:56:41.581Z,99.9
2022-08-16T06:58:45.488Z,99.9
2022-08-16T07:03:57.477Z,99.9
2022-08-16T07:06:00.566Z,99.9
2022-08-16T07:08:07.332Z,99.9
2022-08-16T07:10:11.234Z,99.9
2022-08-16T07:12:15.413Z,99.9
2022-08-16T07:14:26.348Z,99.9
2022-08-16T07:16:22.930Z,99.9
2022-08-16T07:20:47.043Z,99.9
2022-08-16T07:22:39.742Z,99.9
2022-08-16T07:24:45.796Z,99.9
2022-08-16T07:26:48.566Z,99.9
2022-08-16T07:28:49.009Z,99.9
2022-08-16T07:30:52.835Z,99.9
2022-08-16T07:35:00.503Z,99.9
2022-08-16T07:37:07.177Z,99.9
2022-08-16T07:39:10.986Z,99.9
2022-08-16T07:41:14.881Z,99.9
2022-08-16T07:43:18.598Z,99.9
2022-08-16T07:45:22.384Z,99.9
2022-08-16T07:47:31.850Z,99.9
2022-08-16T07:49:32.532Z,99.9
2022-08-16T07:56:48.941Z,98.5
2022-08-16T07:58:55.409Z,97.5
2022-08-16T08:00:56.495Z,89.2
2022-08-16T08:03:00.181Z,96
2022-08-16T08:05:06.814Z,92.1
2022-08-16T08:07:10.519Z,91.9
2022-08-16T08:09:14.257Z,88.5
2022-08-16T08:11:18.317Z,88.1
2022-08-16T08:13:41.816Z,87.8
2022-08-16T08:17:29.100Z,88.3
2022-08-16T08:19:35.690Z,89.8
2022-08-16T08:23:43.226Z,77.4
2022-08-16T08:25:53.854Z,72
2022-08-16T08:27:50.458Z,66.2
2022-08-16T08:30:43.918Z,65.8
2022-08-16T08:31:57.802Z,65.8
2022-08-16T08:34:04.893Z,64.8
2022-08-16T08:40:15.449Z,58.1
2022-08-16T08:42:25.115Z,57.4
2022-08-16T08:44:29.272Z,55
2022-08-16T08:46:26.271Z,53.7
2022-08-16T08:48:35.741Z,52
2022-08-16T08:50:36.450Z,49.7
2022-08-16T08:52:40.765Z,49.5
2022-08-16T08:53:43.332Z,49.4
2022-08-16T08:55:46.954Z,49.1
2022-08-16T08:57:50.557Z,49
2022-08-16T08:59:54.183Z,49.2
2022-08-16T09:02:00.678Z,49.8
2022-08-16T09:04:04.563Z,49.8
2022-08-16T09:06:07.901Z,49.7
2022-08-16T09:08:11.509Z,49.4
2022-08-16T09:10:20.863Z,48.9
2022-08-16T09:12:35.379Z,49.5
2022-08-16T09:14:23.961Z,49.6
2022-08-16T09:17:00.783Z,49.7
2022-08-16T09:18:35.403Z,48.9
2022-08-16T09:30:56.966Z,46.2
2022-08-16T09:33:00.549Z,46
2022-08-16T09:39:16.232Z,43.3
2022-08-16T09:41:15.131Z,42.3
2022-08-16T09:43:44.751Z,41.8
2022-08-16T09:47:28.616Z,41.7
2022-08-16T09:49:36.904Z,41.5
2022-08-16T09:51:57.272Z,41.4
2022-08-16T09:53:59.452Z,41.1
2022-08-16T09:56:03.030Z,40.3
2022-08-16T10:06:23.794Z,38.1
2022-08-16T10:08:27.684Z,38
2022-08-16T10:10:31.347Z,38.2
2022-08-16T10:14:40.949Z,38.4
2022-08-16T10:19:02.147Z,38.6
2022-08-16T10:27:25.602Z,39.7
2022-08-16T10:29:08.759Z,39.7
2022-08-16T10:33:15.905Z,40.4
2022-08-16T10:35:19.463Z,40.3
2022-08-16T10:37:35.851Z,39.2
2022-08-16T10:39:26.687Z,39.3
2022-08-16T10:41:33.080Z,41.2
2022-08-16T10:43:36.669Z,42
2022-08-16T10:45:40.247Z,42.7
2022-08-16T10:46:43.507Z,43.2
2022-08-16T10:48:47.277Z,43.7
2022-08-16T10:50:50.654Z,44.7
2022-08-16T10:52:58.668Z,44.9
2022-08-16T10:55:40.986Z,45.7
2022-08-16T10:57:04.624Z,46
2022-08-16T10:59:43.981Z,46.3
2022-08-16T11:01:43.716Z,46.2
2022-08-16T11:03:42.210Z,44.7
2022-08-16T11:05:18.732Z,44.2
2022-08-16T11:07:53.831Z,43.7
2022-08-16T11:09:29.229Z,43
2022-08-16T11:11:32.795Z,43.1
2022-08-16T11:13:59.761Z,43
2022-08-16T11:15:40.031Z,43.1
2022-08-16T11:17:45.064Z,43.2
2022-08-16T11:20:41.276Z,43.4
2022-08-16T11:23:58.692Z,43.2
2022-08-16T11:26:16.552Z,43.1
2022-08-16T11:28:04.475Z,42.7
2022-08-16T11:30:09.021Z,41.7
2022-08-16T11:32:11.647Z,40.9
2022-08-16T11:34:15.214Z,39.3
2022-08-16T11:36:27.926Z,38
2022-08-16T11:40:32.642Z,36.8
2022-08-16T11:42:37.068Z,36.8
2022-08-16T11:43:35.644Z,37.2
2022-08-16T11:45:39.198Z,37.4
2022-08-16T11:47:42.757Z,37.8
2022-08-16T11:49:46.324Z,37.8
2022-08-16T11:51:52.787Z,37.8
2022-08-16T11:53:56.340Z,37.6
2022-08-16T11:55:59.913Z,37.5
2022-08-16T11:58:03.479Z,37.3
2022-08-16T12:00:07.265Z,36.6
2022-08-16T12:02:31.513Z,36
2022-08-16T12:04:14.255Z,35.3
2022-08-16T12:06:24.589Z,34.5
2022-08-16T12:08:26.007Z,34.4
2022-08-16T12:12:32.760Z,33.8
2022-08-16T12:14:35.485Z,33.6
2022-08-16T12:16:38.462Z,33.4
2022-08-16T12:18:42.071Z,33.5
2022-08-16T12:20:48.487Z,33.5
2022-08-16T12:22:52.021Z,33.7
2022-08-16T12:24:55.597Z,33.8
2022-08-16T12:26:59.955Z,33.9
2022-08-16T12:29:02.668Z,33.8
2022-08-16T12:39:23.704Z,31.1
2022-08-16T12:40:29.151Z,30.8
2022-08-16T12:42:34.477Z,30.9
2022-08-16T12:44:36.140Z,31.1
2022-08-16T12:46:37.318Z,32.1
2022-08-16T12:50:50.163Z,33.1
2022-08-16T12:52:52.475Z,33
2022-08-16T12:56:57.923Z,33.3
2022-08-16T12:59:01.490Z,33.2
2022-08-16T13:01:05.143Z,32.9
2022-08-16T13:03:11.489Z,33.1
2022-08-16T13:05:15.054Z,33.3
2022-08-16T13:07:18.591Z,34.5
2022-08-16T13:09:22.173Z,35.7
2022-08-16T13:11:25.743Z,37.2
2022-08-16T13:13:29.387Z,38.7
2022-08-16T13:17:43.281Z,40.2
2022-08-16T13:21:46.622Z,41
2022-08-16T13:23:50.255Z,41.8
2022-08-16T13:25:54.822Z,43.3
2022-08-16T13:28:14.635Z,43.6
2022-08-16T13:30:01.183Z,44
2022-08-16T13:32:08.325Z,44.7
2022-08-16T13:34:11.381Z,44.7
2022-08-16T13:36:32.167Z,44.3
2022-08-16T13:40:36.556Z,43.7
2022-08-16T13:42:42.990Z,43
2022-08-16T13:44:56.448Z,40.6
2022-08-16T13:46:51.895Z,40.2
2022-08-16T13:48:55.567Z,40.4
2022-08-16T13:51:03.749Z,41.1
2022-08-16T13:55:06.566Z,42.6
2022-08-16T13:57:10.895Z,42.7
2022-08-16T13:59:20.440Z,41.4
2022-08-16T14:01:20.447Z,41.2
2022-08-16T14:03:24.107Z,40.9
2022-08-16T14:07:31.409Z,40.8
2022-08-16T14:09:35.063Z,40.5
2022-08-16T14:11:38.731Z,40.5
2022-08-16T14:15:48.939Z,41.1
2022-08-16T14:18:15.610Z,42.6
2022-08-16T14:19:59.662Z,43.2
2022-08-16T14:26:07.230Z,42.3
2022-08-16T14:30:17.447Z,38.8
2022-08-16T14:33:24.410Z,41.5
2022-08-16T14:37:32.060Z,44.4
2022-08-16T14:39:35.479Z,45.6
2022-08-16T14:41:42.005Z,46.9
2022-08-16T14:43:45.679Z,47.3
2022-08-16T14:45:50.333Z,47.9
2022-08-16T14:47:53.066Z,47.7
2022-08-16T14:49:56.747Z,46.4
2022-08-16T14:52:00.471Z,46.1
2022-08-16T14:54:04.157Z,45.8
2022-08-16T14:56:15.048Z,46.7
2022-08-16T14:58:19.678Z,47.8
2022-08-16T15:00:18.255Z,48.7
2022-08-16T15:02:34.034Z,49.1
2022-08-16T15:04:32.279Z,49.3
2022-08-16T15:06:29.311Z,49.3
2022-08-16T15:08:36.370Z,49
2022-08-16T15:10:42.980Z,49.1
2022-08-16T15:12:43.280Z,48.9
2022-08-16T15:14:46.995Z,48.9
2022-08-16T15:16:50.717Z,49.3
2022-08-16T15:18:54.421Z,49.7
2022-08-16T15:20:58.139Z,50.8
2022-08-16T15:23:01.855Z,52
2022-08-16T15:25:08.450Z,53.7
2022-08-16T15:27:12.174Z,53.9
2022-08-16T15:29:15.872Z,54.2
2022-08-16T15:34:26.622Z,52.8
2022-08-16T15:36:30.344Z,52.3
2022-08-16T15:39:02.307Z,53.4
2022-08-16T15:40:57.783Z,54.6
2022-08-16T15:42:47.269Z,55.1
2022-08-16T15:44:52.045Z,54.9
2022-08-16T15:46:54.819Z,55.3
2022-08-16T15:48:55.544Z,63.3
2022-08-16T15:50:59.254Z,64.4
2022-08-16T15:53:05.885Z,65.2
2022-08-16T15:55:23.927Z,65.8
2022-08-16T15:57:13.353Z,66.4
2022-08-16T15:59:17.094Z,69
2022-08-16T16:01:20.901Z,69.2
2022-08-16T16:03:24.544Z,69.5
2022-08-16T16:05:28.284Z,68.8
2022-08-16T16:07:34.892Z,68.9
2022-08-16T16:09:38.610Z,68.4
2022-08-16T16:13:46.068Z,71.3
2022-08-16T16:19:57.241Z,85.6
2022-08-16T16:22:03.878Z,89.5
2022-08-16T16:27:14.637Z,93.9
2022-08-16T16:29:18.386Z,96.1
2022-08-16T16:31:22.114Z,97.6
2022-08-16T16:33:25.923Z,98.3
2022-08-16T16:35:33.010Z,99.2
2022-08-16T16:37:36.245Z,99.6
2022-08-16T16:39:40.076Z,99.6
2022-08-16T16:41:43.771Z,99.9
2022-08-16T16:43:47.542Z,99.9
2022-08-16T16:45:51.294Z,99.9
2022-08-16T16:47:55.066Z,99.9
2022-08-16T16:50:01.742Z,99.9
2022-08-16T16:58:18.029Z,99.9
2022-08-16T17:00:25.942Z,99.9
2022-08-16T17:08:40.862Z,99.9
2022-08-16T17:10:46.023Z,99.9
2022-08-16T17:12:47.500Z,99.9
2022-08-16T17:14:50.141Z,99.9
2022-08-16T17:16:53.941Z,99.9
2022-08-16T17:19:16.263Z,99.9
2022-08-16T17:21:04.393Z,99.9
2022-08-16T17:23:08.192Z,99.9
2022-08-16T17:25:36.418Z,98.3
2022-08-16T17:27:35.906Z,97.3
2022-08-16T17:29:45.894Z,97.1
2022-08-16T17:31:47.004Z,98.3
2022-08-16T17:33:54.375Z,98.6
2022-08-16T17:35:55.403Z,99
2022-08-16T17:37:58.004Z,99.1
2022-08-16T17:40:04.128Z,99.4
2022-08-16T17:42:05.329Z,99.4
2022-08-16T17:44:09.139Z,99.5
2022-08-16T17:48:19.597Z,99.9
2022-08-16T17:50:23.420Z,99.9
2022-08-16T17:52:27.202Z,99.9
2022-08-16T17:54:31.145Z,99.9
2022-08-16T17:56:34.831Z,99.9
2022-08-16T17:58:38.622Z,99.9
2022-08-16T18:00:45.326Z,99.9
2022-08-16T18:02:49.134Z,99.9
2022-08-16T18:04:52.967Z,99.9
2022-08-16T18:06:56.785Z,99.9
2022-08-16T18:09:03.523Z,99.9
2022-08-16T18:11:04.428Z,99.9
2022-08-16T18:13:08.251Z,99.9
2022-08-16T18:15:14.952Z,99.9
2022-08-16T18:17:18.795Z,99.9
2022-08-16T18:19:22.629Z,99.9
2022-08-16T18:20:25.981Z,99.9
2022-08-16T18:22:30.553Z,99.9
2022-08-16T18:24:33.668Z,99.9
2022-08-16T18:26:37.495Z,99.9
2022-08-16T18:28:44.199Z,99.9
2022-08-16T18:30:51.602Z,99.9
2022-08-16T18:32:51.935Z,99.9
2022-08-16T18:34:55.753Z,99.9
2022-08-16T18:36:59.627Z,99.9
2022-08-16T18:39:03.561Z,99.9
2022-08-16T18:41:07.364Z,99.9
2022-08-16T18:45:17.904Z,99.9
2022-08-16T18:47:21.777Z,99.9
2022-08-16T18:49:25.650Z,99.9
2022-08-16T18:51:29.508Z,99.9
2022-08-16T18:53:33.376Z,99.9
2022-08-16T18:55:37.267Z,99.9
2022-08-16T18:57:43.983Z,99.9
2022-08-16T19:10:07.250Z,99.9
2022-08-16T19:12:15.709Z,99.9
2022-08-16T19:14:17.869Z,99.9
2022-08-16T19:17:25.112Z,99.9
2022-08-16T19:19:28.999Z,99.9
2022-08-16T19:21:32.888Z,99.9
2022-08-16T19:23:37.088Z,99.9
2022-08-16T19:25:48.623Z,99.9
2022-08-16T19:27:47.536Z,99.9
2022-08-16T19:29:51.281Z,99.9
2022-08-16T19:31:55.164Z,99.9
2022-08-16T19:33:59.055Z,99.9
2022-08-16T19:36:02.968Z,99.9
2022-08-16T19:38:06.847Z,99.9
2022-08-16T19:40:25.592Z,99.9
2022-08-16T19:46:26.723Z,99.9
2022-08-16T19:48:30.601Z,99.9
2022-08-16T19:52:38.359Z,99.9
2022-08-16T19:54:45.103Z,99.9
2022-08-16T19:56:48.989Z,99.9
2022-08-16T19:59:17.491Z,99.9
2022-08-16T20:00:56.750Z,99.9
2022-08-16T20:05:04.549Z,99.9
2022-08-16T20:07:08.433Z,99.9
2022-08-16T20:09:16.015Z,99.9
2022-08-16T20:11:19.057Z,99.9
2022-08-16T20:13:22.941Z,99.9
2022-08-16T20:14:26.708Z,99.9
2022-08-16T20:16:30.204Z,99.9
2022-08-16T20:18:34.101Z,99.9
2022-08-16T20:20:37.975Z,99.9
2022-08-16T20:22:53.599Z,99.9
2022-08-16T20:24:48.603Z,99.9
2022-08-16T20:26:52.500Z,99.9
2022-08-16T20:28:56.386Z,99.9
2022-08-16T20:31:00.282Z,99.9
2022-08-16T20:35:08.063Z,99.9
2022-08-16T20:39:18.717Z,99.9
2022-08-16T20:41:22.609Z,99.9
2022-08-16T20:43:26.508Z,99.9
2022-08-16T20:47:34.309Z,99.9
2022-08-16T20:49:38.210Z,99.9
2022-08-16T20:51:46.882Z,99.9
2022-08-16T20:53:48.868Z,99.9
2022-08-16T20:55:52.769Z,99.9
2022-08-16T20:57:56.699Z,99.9
2022-08-16T21:00:00.579Z,99.9
2022-08-16T21:02:04.518Z,99.9
2022-08-16T21:12:50.828Z,99.9
2022-08-16T21:14:54.473Z,99.9
2022-08-16T21:21:09.147Z,99.9
2022-08-16T21:25:16.848Z,99.9
2022-08-16T21:27:20.745Z,99.9
2022-08-16T21:31:28.583Z,99.9
2022-08-16T21:39:47.116Z,99.9
2022-08-16T21:41:51.015Z,99.9
2022-08-16T21:43:54.896Z,99.9
2022-08-16T21:50:09.479Z,99.9
2022-08-16T21:54:17.322Z,99.9
2022-08-16T22:00:29.086Z,99.9
2022-08-16T22:07:47.044Z,99.9
2022-08-16T22:13:59.387Z,99.9
2022-08-16T22:16:05.562Z,99.9
2022-08-16T22:18:09.458Z,99.9
2022-08-16T22:20:13.389Z,99.9
2022-08-16T22:22:17.313Z,99.9
2022-08-16T22:24:21.254Z,99.9
2022-08-16T22:26:29.051Z,99.9
2022-08-16T22:28:29.048Z,99.9
2022-08-16T22:30:35.834Z,99.9
2022-08-16T22:32:39.734Z,99.9
2022-08-16T22:34:43.672Z,99.9
2022-08-16T22:36:47.586Z,99.9
2022-08-16T22:38:57.071Z,99.9
2022-08-16T22:40:55.448Z,99.9
2022-08-16T22:42:59.373Z,99.9
2022-08-16T22:45:06.096Z,99.9
2022-08-16T22:47:10.021Z,99.9
2022-08-16T22:49:13.948Z,99.9
2022-08-16T22:51:17.890Z,99.9
2022-08-16T22:53:21.799Z,99.9
2022-08-16T22:55:26.154Z,99.9
2022-08-16T22:57:29.654Z,99.9
2022-08-16T22:59:36.413Z,99.9
2022-08-16T23:01:40.374Z,99.9
2022-08-16T23:04:47.616Z,99.9
2022-08-16T23:06:51.536Z,99.9
2022-08-16T23:10:59.386Z,99.9
2022-08-16T23:13:06.136Z,99.9
2022-08-16T23:15:10.055Z,99.9
2022-08-16T23:17:13.989Z,99.9
2022-08-16T23:19:17.936Z,99.9
2022-08-16T23:21:21.834Z,99.9
2022-08-16T23:27:36.446Z,99.9
2022-08-16T23:29:40.350Z,99.9
2022-08-16T23:33:48.214Z,99.9
2022-08-16T23:35:52.126Z,99.9
2022-08-16T23:37:56.039Z,99.9
2022-08-16T23:40:00.026Z,99.9
2022-08-16T23:42:06.751Z,99.9
2022-08-16T23:46:14.574Z,99.9
2022-08-16T23:48:18.503Z,99.9
2022-08-16T23:52:53.765Z,99.9
2022-08-16T23:54:30.291Z,99.9
2022-08-16T23:56:40.524Z,99.9
2022-08-16T23:58:40.961Z,99.9
